Terminal Aerodrome Forecast
Issued by NWS

Home | Current Version | Previous Version | Text Only | Print | Product List | Glossary On
Versions: 1 2 3 4 5 6 7 8 9 10 11 12 13 14 15 16 17 18 19 20 21 22 23 24 25 26 27
000
FTUS43 KDMX 161256 AAA
TAFMCW
TAF AMD
KMCW 161256Z 1613/1712 13010KT 3SM BR OVC004
     FM161400 14013KT P6SM BKN040
     FM162000 14012G17KT P6SM VCTS OVC060CB
     FM170300 16007KT P6SM BKN035
     FM170800 25011G18KT P6SM OVC015=

USA.gov is the U.S. government's official web portal to all federal, state and local government web resources and services.